Latest Weather Observations for Mackay Airport

IDQ60801

Issued at 8:02 am EST Monday 31 August 2015 (issued every 30 minutes, with the page automatically refreshed every 10 minutes)

About weather observations | Map of weather stations | Latest weather observations for QLD | Other Formats
Station Details ID: 033045 Name: MACKAY AERO Lat: -21.17 Lon: 149.18 Height: 4.7 m
Data from the previous 72 hours. | See also: Recent months at Mackay Airport
Date/Time
EST
Temp
°C
App
Temp
°C
Dew
Point
Rel
Hum
%
Delta-T
°C
Wind Press
QNH
hPa
Press
MSL
hPa
Rain
since 9 am
mm
Dir
 
Spd
km/h
Gust
km/h
Spd
kts
Gust
kts
31/08:00am 18.3 18.2 15.0 81 1.9 SSW 9 11 5 6 1017.8 1017.8 0.2
31/07:30am 16.3 17.1 14.8 91 0.9 WSW 4 7 2 4 1017.5 1017.5 0.2
31/07:00am 15.1 15.9 14.8 98 0.2 WSW 4 9 2 5 1017.1 1017.1 0.2
31/06:30am 13.4 14.4 13.1 98 0.2 CALM 0 4 0 2 1016.7 1016.7 0.2
31/06:28am 13.3 14.2 13.0 98 0.2 CALM 0 4 0 2 1016.7 1016.7 0.2
31/06:00am 13.5 14.1 13.2 98 0.2 WSW 2 6 1 3 1016.3 1016.3 0.2
31/05:30am 13.3 12.5 13.0 98 0.2 WSW 9 11 5 6 1015.8 1015.8 0.2
31/05:23am 14.2 13.4 13.9 98 0.2 WSW 11 11 6 6 1015.8 1015.8 0.2
31/05:00am 13.7 13.1 13.4 98 0.2 WSW 9 11 5 6 1015.7 1015.7 0.2
31/04:43am 14.1 14.0 13.8 98 0.2 WSW 7 7 4 4 1015.5 1015.5 0.2
31/04:34am 14.0 13.8 13.7 98 0.2 WSW 7 9 4 5 1015.4 1015.4 0.2
31/04:30am 13.7 13.1 13.4 98 0.2 WSW 9 11 5 6 1015.4 1015.4 0.2
31/04:00am 14.3 14.2 14.0 98 0.2 WSW 7 9 4 5 1015.4 1015.4 0.2
31/03:30am 14.1 14.2 13.8 98 0.2 WSW 6 7 3 4 1015.4 1015.4 0.2
31/03:07am 14.5 14.7 14.2 98 0.2 WSW 6 9 3 5 1015.6 1015.6 0.2
31/03:00am 15.5 15.9 15.2 98 0.2 WSW 7 9 4 5 1015.7 1015.7 0.2
31/02:57am 15.5 15.9 15.2 98 0.2 WSW 7 9 4 5 1015.7 1015.7 0.2
31/02:30am 14.4 14.0 14.1 98 0.2 SW 9 11 5 6 1015.9 1015.9 0.2
31/02:00am 15.1 15.5 14.8 98 0.2 SW 6 7 3 4 1016.1 1016.1 0.2
31/01:55am 15.3 15.8 15.0 98 0.2 SW 6 7 3 4 1016.1 1016.1 0.2
31/01:30am 16.1 16.7 15.8 98 0.2 SW 7 9 4 5 1016.2 1016.2 0.2
31/01:00am 16.5 16.9 16.2 98 0.2 SW 9 11 5 6 1016.4 1016.4 0.2
31/12:31am 15.9 16.0 15.4 97 0.3 SW 9 11 5 6 1016.6 1016.6 0.2
31/12:30am 15.8 15.8 15.3 97 0.3 SW 9 11 5 6 1016.6 1016.6 0.2
31/12:00am 16.5 17.4 16.0 97 0.3 SW 6 7 3 4 1016.6 1016.6 0.2
 
Date/Time
EST
Temp
°C
App
Temp
°C
Dew
Point
Rel
Hum
%
Delta-T
°C
Wind Press
QNH
hPa
Press
MSL
hPa
Rain
since 9 am
mm
Dir
 
Spd
km/h
Gust
km/h
Spd
kts
Gust
kts
30/11:52pm 16.3 16.9 15.8 97 0.3 SW 7 9 4 5 1016.6 1016.6 0.2
30/11:36pm 16.5 16.4 16.0 97 0.3 SW 11 11 6 6 1016.8 1016.8 0.2
30/11:30pm 16.4 16.7 15.9 97 0.3 SW 9 11 5 6 1016.8 1016.8 0.2
30/11:00pm 17.0 17.4 16.4 96 0.4 SW 9 11 5 6 1016.8 1016.8 0.2
30/10:43pm 17.6 18.9 17.1 97 0.3 SSW 6 7 3 4 1016.9 1016.9 0.2
30/10:30pm 17.3 18.2 16.7 96 0.4 SSW 7 9 4 5 1016.9 1016.9 0.2
30/10:00pm 17.7 18.3 16.9 95 0.5 SSW 9 11 5 6 1017.0 1017.0 0.2
30/09:30pm 17.9 18.5 16.8 93 0.7 SSE 9 11 5 6 1016.8 1016.8 0.2
30/09:00pm 19.0 20.4 17.7 92 0.8 SSE 7 9 4 5 1016.8 1016.8 0.2
30/08:30pm 19.8 21.2 17.9 89 1.2 SE 7 9 4 5 1016.6 1016.6 0.2
30/08:00pm 20.2 21.9 18.5 90 1.1 SE 7 11 4 6 1016.5 1016.5 0.2
30/07:30pm 20.2 21.8 18.3 89 1.2 SSE 7 9 4 5 1016.0 1016.0 0.2
30/07:00pm 20.6 22.0 18.7 89 1.2 SSE 9 13 5 7 1015.6 1015.6 0.2
30/06:30pm 20.8 21.8 18.6 87 1.4 SE 11 15 6 8 1015.3 1015.3 0.2
30/06:00pm 21.4 22.0 18.6 84 1.8 ESE 13 17 7 9 1015.0 1015.0 0.2
30/05:30pm 21.7 22.0 18.7 83 1.9 ESE 15 19 8 10 1014.7 1014.7 0.2
30/05:07pm 22.1 22.5 18.9 82 2.0 SE 15 20 8 11 1014.4 1014.4 0.2
30/05:00pm 22.0 22.3 18.8 82 2.0 SE 15 17 8 9 1014.5 1014.5 0.2
30/04:30pm 21.8 21.7 18.8 83 1.9 ESE 17 22 9 12 1014.3 1014.3 0.2
30/04:00pm 22.1 22.0 18.7 81 2.1 ESE 17 22 9 12 1014.3 1014.3 0.2
30/03:30pm 22.0 21.4 18.8 82 2.0 SE 20 28 11 15 1014.5 1014.5 0.2
30/03:00pm 22.3 21.8 19.1 82 2.0 ESE 20 26 11 14 1014.3 1014.3 0.2
30/02:30pm 22.3 22.0 19.1 82 2.0 E 19 24 10 13 1014.5 1014.5 0.2
30/02:13pm 22.5 22.5 19.7 84 1.8 E 19 22 10 12 1014.8 1014.8 0.2
30/02:12pm 22.6 22.7 19.9 85 1.7 E 19 22 10 12 1014.8 1014.8 0.2
30/02:00pm 21.9 21.6 19.5 86 1.5 E 20 26 11 14 1014.7 1014.7 0.2
30/01:58pm 21.9 21.6 19.6 87 1.5 E 20 26 11 14 1014.7 1014.7 0.2
30/01:30pm 23.0 22.2 19.2 79 2.4 E 22 30 12 16 1015.1 1015.1 0.0
30/01:00pm 24.3 23.0 19.1 73 3.3 E 24 30 13 16 1015.3 1015.3 0.0
30/12:30pm 24.2 23.9 19.5 75 3.0 E 20 24 11 13 1015.7 1015.7 0.0
30/12:00pm 23.7 23.1 18.8 74 3.1 E 20 24 11 13 1016.5 1016.5 0.0
30/11:30am 24.3 24.0 19.6 75 3.0 E 20 24 11 13 1017.0 1017.0 0.0
30/11:00am 23.4 23.0 18.9 76 2.8 E 19 26 10 14 1017.6 1017.6 0.0
30/10:30am 21.6 21.6 19.0 85 1.6 E 17 19 9 10 1018.1 1018.1 0.0
30/10:00am 23.4 23.1 19.1 77 2.7 ESE 19 22 10 12 1018.4 1018.4 0.0
30/09:32am 23.0 22.9 19.6 81 2.2 E 19 20 10 11 1018.3 1018.3 0.0
30/09:30am 22.8 23.0 19.4 81 2.2 E 17 20 9 11 1018.2 1018.2 0.0
30/09:00am 22.6 23.8 19.0 80 2.3 SE 11 17 6 9 1018.2 1018.2 0.4
30/08:30am 22.6 24.5 19.8 84 1.8 S 9 13 5 7 1018.0 1018.0 0.4
30/08:00am 21.9 24.3 20.0 89 1.2 S 7 9 4 5 1017.8 1017.8 0.4
30/07:30am 20.4 22.7 19.4 94 0.6 SSW 6 9 3 5 1017.6 1017.6 0.4
30/07:00am 19.4 21.4 18.7 96 0.4 SW 6 9 3 5 1017.5 1017.5 0.4
30/06:30am 19.2 20.9 18.5 96 0.4 WSW 7 9 4 5 1017.1 1017.1 0.4
30/06:00am 19.0 21.9 18.3 96 0.4 CALM 0 0 0 0 1016.6 1016.6 0.0
30/05:30am 19.2 21.2 18.7 97 0.3 W 6 7 3 4 1016.4 1016.4 0.0
30/05:06am 19.2 20.6 18.7 97 0.3 WSW 9 13 5 7 1016.3 1016.3 0.0
30/05:00am 19.1 20.5 18.6 97 0.3 WSW 9 11 5 6 1016.2 1016.2 0.0
30/04:45am 18.2 20.8 17.6 96 0.4 CALM 0 0 0 0 1015.9 1015.9 0.0
30/04:44am 18.1 20.7 17.5 96 0.4 CALM 0 0 0 0 1015.9 1015.9 0.0
30/04:30am 18.5 20.2 18.0 97 0.3 WSW 6 13 3 7 1015.8 1015.8 0.0
30/04:28am 18.5 20.0 18.0 97 0.3 WSW 7 15 4 8 1015.7 1015.7 0.0
30/04:00am 18.1 19.6 17.6 97 0.3 W 6 7 3 4 1015.9 1015.9 0.0
30/03:49am 18.3 19.7 17.8 97 0.3 W 7 9 4 5 1015.9 1015.9 0.0
30/03:35am 17.8 18.6 17.2 96 0.4 SW 9 11 5 6 1015.9 1015.9 0.0
30/03:30am 17.8 18.6 17.2 96 0.4 WSW 9 11 5 6 1015.9 1015.9 0.0
30/03:00am 18.5 20.1 17.8 96 0.4 ESE 6 9 3 5 1016.2 1016.2 0.0
30/02:30am 18.7 20.3 17.9 95 0.5 ESE 6 7 3 4 1016.3 1016.3 0.0
30/02:00am 19.4 22.4 18.4 94 0.6 CALM 0 0 0 0 1016.4 1016.4 0.0
30/01:30am 20.0 21.7 19.3 96 0.4 SSE 9 13 5 7 1017.1 1017.1 0.0
30/01:00am 19.3 21.0 18.6 96 0.4 SE 7 9 4 5 1017.3 1017.3 0.0
30/12:30am 19.1 20.0 18.4 96 0.4 SSW 11 13 6 7 1017.8 1017.8 0.0
30/12:00am 18.8 19.9 18.0 95 0.5 SW 9 11 5 6 1017.9 1017.9 0.0
 
Date/Time
EST
Temp
°C
App
Temp
°C
Dew
Point
Rel
Hum
%
Delta-T
°C
Wind Press
QNH
hPa
Press
MSL
hPa
Rain
since 9 am
mm
Dir
 
Spd
km/h
Gust
km/h
Spd
kts
Gust
kts
29/11:30pm 19.4 20.4 18.7 96 0.4 SW 11 13 6 7 1018.0 1018.0 0.0
29/11:00pm 18.2 19.0 17.2 94 0.6 WSW 9 11 5 6 1017.8 1017.8 0.0
29/10:30pm 18.6 19.5 17.6 94 0.6 WSW 9 11 5 6 1017.7 1017.7 0.0
29/10:12pm 19.4 20.7 18.4 94 0.6 ENE 9 9 5 5 1017.6 1017.6 0.0
29/10:00pm 20.1 22.5 18.9 93 0.8 ENE 4 6 2 3 1017.7 1017.7 0.0
29/09:59pm 20.2 22.7 19.0 93 0.8 ENE 4 6 2 3 1017.7 1017.7 0.0
29/09:55pm 20.4 23.0 19.2 93 0.8 ENE 4 6 2 3 1017.5 1017.5 0.0
29/09:30pm 20.2 22.3 19.0 93 0.8 ENE 6 7 3 4 1017.6 1017.6 0.0
29/09:00pm 20.4 22.4 19.1 92 0.8 ENE 7 9 4 5 1017.7 1017.7 0.0
29/08:30pm 20.5 23.8 19.0 91 0.9 CALM 0 0 0 0 1018.1 1018.1 0.0
29/08:28pm 20.7 24.1 19.4 92 0.8 CALM 0 0 0 0 1018.0 1018.0 0.0
29/08:00pm 21.3 23.3 19.9 92 0.9 ENE 9 9 5 5 1017.7 1017.7 0.0
29/07:30pm 21.3 22.8 19.8 91 1.0 E 11 30 6 16 1017.3 1017.3 0.0
29/07:00pm 21.5 22.7 20.0 91 1.0 ENE 13 17 7 9 1016.8 1016.8 0.0
29/06:30pm 21.5 22.7 19.8 90 1.1 ENE 13 17 7 9 1016.8 1016.8 0.0
29/06:00pm 21.7 22.8 19.6 88 1.3 ENE 13 17 7 9 1016.8 1016.8 0.0
29/05:30pm 22.4 22.8 19.8 85 1.7 ENE 17 20 9 11 1016.7 1016.7 0.0
29/05:00pm 22.9 22.8 19.9 83 1.9 NE 20 24 11 13 1016.7 1016.7 0.0
29/04:30pm 23.5 23.4 19.6 79 2.5 ENE 19 24 10 13 1016.6 1016.6 0.0
29/04:00pm 24.2 24.0 19.7 76 2.9 E 20 28 11 15 1016.5 1016.5 0.0
29/03:30pm 24.8 24.2 19.8 74 3.2 ENE 22 26 12 14 1016.7 1016.7 0.0
29/03:00pm 24.8 24.1 19.4 72 3.5 ENE 22 28 12 15 1016.8 1016.8 0.0
29/02:30pm 24.9 24.2 19.5 72 3.5 ENE 22 26 12 14 1017.2 1017.2 0.0
29/02:00pm 25.1 24.4 19.5 71 3.6 E 22 30 12 16 1017.4 1017.4 0.0
29/01:30pm 25.0 24.1 19.1 70 3.8 E 22 26 12 14 1018.0 1018.0 0.0
29/01:00pm 24.2 23.4 18.4 70 3.7 ENE 20 28 11 15 1018.5 1018.5 0.0
29/12:30pm 25.1 24.8 19.2 70 3.8 E 19 24 10 13 1019.0 1019.0 0.0
29/12:00pm 24.8 24.3 18.7 69 3.9 E 19 22 10 12 1019.6 1019.6 0.0
29/11:30am 25.1 25.0 19.5 71 3.6 E 19 22 10 12 1019.9 1019.9 0.0
29/11:00am 24.1 23.7 19.0 73 3.2 ESE 19 26 10 14 1020.3 1020.3 0.0
29/10:30am 24.6 25.3 19.7 74 3.2 ESE 15 19 8 10 1020.9 1020.9 0.0
29/10:00am 24.3 25.3 19.4 74 3.1 ESE 13 17 7 9 1021.1 1021.1 0.0
29/09:30am 23.8 24.6 19.1 75 3.0 SE 13 17 7 9 1021.1 1021.1 0.0
29/09:17am 23.5 24.6 19.6 79 2.5 SE 13 17 7 9 1021.0 1021.0 0.0
29/09:00am 23.1 24.9 19.5 80 2.3 SE 9 15 5 8 1020.7 1020.7 0.0
29/08:30am 21.3 23.3 19.2 88 1.3 SSW 7 11 4 6 1020.6 1020.6 0.0
29/08:00am 19.5 21.0 18.0 91 0.9 SW 7 9 4 5 1020.5 1020.5 0.0
29/07:57am 19.5 21.1 18.2 92 0.8 SW 7 9 4 5 1020.5 1020.5 0.0
29/07:30am 18.5 19.8 17.5 94 0.6 SW 7 9 4 5 1020.2 1020.2 0.0
29/07:26am 18.3 19.5 17.3 94 0.6 SW 7 9 4 5 1020.1 1020.1 0.0
29/07:00am 17.4 18.0 16.9 97 0.3 WSW 9 11 5 6 1019.9 1019.9 0.0
29/06:34am 15.7 16.0 14.9 95 0.5 W 7 9 4 5 1019.6 1019.6 0.0
29/06:30am 15.8 16.3 15.0 95 0.5 W 6 7 3 4 1019.6 1019.6 0.0
29/06:23am 15.9 16.2 15.1 95 0.5 W 7 9 4 5 1019.5 1019.5 0.0
29/06:00am 16.3 16.9 15.7 96 0.3 W 7 9 4 5 1019.3 1019.3 0.0
29/05:30am 15.9 16.5 15.4 97 0.3 W 6 7 3 4 1019.0 1019.0 0.0
29/05:07am 15.9 16.0 15.6 98 0.2 WSW 9 11 5 6 1018.7 1018.7 0.0
29/05:00am 15.6 15.6 15.3 98 0.2 WSW 9 11 5 6 1018.6 1018.6 0.0
29/04:30am 16.0 15.7 15.5 97 0.3 WSW 11 13 6 7 1018.2 1018.2 0.0
29/04:21am 16.1 15.9 15.6 97 0.3 WSW 11 13 6 7 1018.2 1018.2 0.0
29/04:20am 16.1 16.2 15.6 97 0.3 WSW 9 13 5 7 1018.2 1018.2 0.0
29/04:18am 15.9 16.0 15.4 97 0.3 WSW 9 13 5 7 1018.1 1018.1 0.0
29/04:00am 15.5 16.0 14.9 96 0.3 SW 6 7 3 4 1018.1 1018.1 0.0
29/03:58am 15.1 15.4 14.5 96 0.3 SW 6 7 3 4 1018.1 1018.1 0.0
29/03:30am 15.4 15.2 14.8 96 0.3 SW 9 11 5 6 1018.2 1018.2 0.0
29/03:00am 16.1 16.2 15.5 96 0.3 W 9 11 5 6 1018.6 1018.6 0.0
29/02:30am 16.0 16.6 15.4 96 0.3 W 6 7 3 4 1018.9 1018.9 0.0
29/02:00am 15.9 17.3 15.3 96 0.3 W 2 7 1 4 1019.2 1019.2 0.0
29/01:30am 15.8 16.2 14.8 94 0.6 W 6 7 3 4 1019.6 1019.6 0.0
29/01:00am 16.7 17.4 15.7 94 0.6 W 6 7 3 4 1020.0 1020.0 0.0
29/12:36am 17.1 17.5 16.3 95 0.5 WSW 9 11 5 6 1020.2 1020.2 0.0
29/12:30am 16.7 17.3 15.9 95 0.5 WSW 7 9 4 5 1020.2 1020.2 0.0
29/12:16am 16.7 17.5 15.9 95 0.5 WSW 6 9 3 5 1020.2 1020.2 0.0
29/12:00am 16.7 17.3 15.9 95 0.5 WSW 7 7 4 4 1020.1 1020.1 0.0
 
Date/Time
EST
Temp
°C
App
Temp
°C
Dew
Point
Rel
Hum
%
Delta-T
°C
Wind Press
QNH
hPa
Press
MSL
hPa
Rain
since 9 am
mm
Dir
 
Spd
km/h
Gust
km/h
Spd
kts
Gust
kts
28/11:30pm 16.9 17.1 15.8 93 0.6 WSW 9 11 5 6 1020.0 1020.0 0.0
28/11:00pm 17.8 19.0 16.8 94 0.6 SSW 6 7 3 4 1019.9 1019.9 0.0
28/10:30pm 17.7 18.6 16.7 94 0.6 SSW 7 9 4 5 1020.0 1020.0 0.0
28/10:00pm 17.7 18.2 16.6 93 0.7 SSW 9 11 5 6 1020.0 1020.0 0.0
28/09:30pm 17.9 18.3 16.4 91 0.9 ENE 9 11 5 6 1020.2 1020.2 0.0
28/09:00pm 19.4 22.2 17.9 91 0.9 CALM 0 2 0 1 1020.2 1020.2 0.0
28/08:30pm 21.0 23.0 18.8 87 1.4 ENE 6 7 3 4 1019.9 1019.9 0.0
28/08:00pm 21.2 22.8 19.1 88 1.3 ENE 9 13 5 7 1019.7 1019.7 0.0
28/07:30pm 21.4 22.9 19.0 86 1.5 ENE 9 13 5 7 1019.3 1019.3 0.0
28/07:00pm 21.6 22.3 18.8 84 1.8 ENE 13 17 7 9 1018.9 1018.9 0.0
28/06:30pm 21.5 22.0 18.3 82 2.0 ENE 13 17 7 9 1018.6 1018.6 0.0
28/06:00pm 21.8 21.8 18.0 79 2.4 ENE 15 20 8 11 1018.4 1018.4 0.0
28/05:30pm 22.4 22.0 18.0 76 2.7 ENE 17 24 9 13 1018.0 1018.0 0.0
28/05:00pm 23.1 22.1 18.0 73 3.2 E 20 26 11 14 1017.7 1017.7 0.0
28/04:30pm 23.7 22.4 18.1 71 3.5 ENE 22 28 12 15 1017.6 1017.6 0.0
28/04:00pm 24.0 23.1 18.2 70 3.6 E 20 24 11 13 1017.4 1017.4 0.0
28/03:30pm 25.2 24.4 19.3 70 3.8 ENE 22 30 12 16 1017.3 1017.3 0.0
28/03:00pm 24.9 23.4 18.6 68 4.0 ENE 24 32 13 17 1016.7 1016.7 0.0
28/02:30pm 24.7 23.0 18.9 70 3.7 E 26 33 14 18 1017.1 1017.1 0.0
28/02:00pm 24.4 22.4 18.3 69 3.8 E 26 32 14 17 1017.5 1017.5 0.0
28/01:30pm 24.6 23.4 19.2 72 3.5 E 24 32 13 17 1018.1 1018.1 0.0
28/01:00pm 24.6 23.5 19.4 73 3.3 E 24 30 13 16 1018.8 1018.8 0.0
28/12:30pm 24.6 23.7 19.0 71 3.6 E 22 28 12 15 1019.2 1019.2 0.0
28/12:00pm 25.0 24.4 19.8 73 3.4 E 22 28 12 15 1019.5 1019.5 0.0
28/11:30am 25.1 24.0 19.5 71 3.6 E 24 30 13 16 1019.9 1019.9 0.0
28/11:00am 25.3 25.2 19.9 72 3.5 E 20 24 11 13 1020.5 1020.5 0.0
28/10:30am 23.9 23.6 19.2 75 3.0 E 19 24 10 13 1020.8 1020.8 0.0
28/10:00am 24.2 24.5 18.8 72 3.4 ESE 15 20 8 11 1021.0 1021.0 0.0
28/09:37am 23.8 24.3 18.4 72 3.4 E 13 17 7 9 1021.0 1021.0 0.0
28/09:30am 23.9 24.7 19.0 74 3.1 ESE 13 17 7 9 1021.0 1021.0 0.0
28/09:21am 23.7 24.6 18.4 72 3.3 SE 11 15 6 8 1021.1 1021.1 0.0
28/09:00am 23.4 25.2 19.5 79 2.5 SSE 9 13 5 7 1021.1 1021.1 0.0
28/08:30am 21.4 23.6 19.1 87 1.5 SSW 6 9 3 5 1020.9 1020.9 0.0

Other Formats:

Comma delimited format used in spreadsheet applications
http://www.bom.gov.au/fwo/IDQ60801/IDQ60801.95367.axf

JavaScript Object Notation format (JSON) in row-major order
http://www.bom.gov.au/fwo/IDQ60801/IDQ60801.95367.json